Tuapse, Russia
Current Conditions -  °F | °C
As of 7:00 AM on Thursday 23 Oct 2014 (Local Time) from URSS Reporting Station
Scattered Clouds Scattered Clouds  
Wind Chill: 52°   Ceiling: Unl
Heat Index: 52°   Visibility: 6mi
Dew Point: 37°   Wind: 2mph
Humidity: 58%   Direction: 100°E
Pressure: 29.85"   Gusts: NA
Location:  44.11°N, 39.07°E
Report Text: URSS 230400Z 10001MPS 9999 SCT230 11/03 Q1011 NOSIG RMKR02/05007G10MPS QFE757 06000070 02000070
Loading
Personal Weather Stations






























Interactive Weather Map
Tropical Storm Tracking
New forecast layout! Learn more

10-Day Weather Forecast

Advertisements
Track Severe Weather on mobile